sensor_id;sensor_type;location;lat;lon;timestamp;P1;durP1;ratioP1;P2;durP2;ratioP2
6850;SDS011;3464;42.728;23.296;2022-07-04T00:00:45;13.90;;;6.27;;
6850;SDS011;3464;42.728;23.296;2022-07-04T00:03:13;14.83;;;5.07;;
6850;SDS011;3464;42.728;23.296;2022-07-04T00:05:40;15.00;;;5.87;;
6850;SDS011;3464;42.728;23.296;2022-07-04T00:08:07;16.60;;;5.50;;
6850;SDS011;3464;42.728;23.296;2022-07-04T00:10:35;12.83;;;5.30;;
6850;SDS011;3464;42.728;23.296;2022-07-04T00:13:01;16.97;;;5.67;;
6850;SDS011;3464;42.728;23.296;2022-07-04T00:15:29;15.40;;;5.30;;
6850;SDS011;3464;42.728;23.296;2022-07-04T00:17:56;12.40;;;5.30;;
6850;SDS011;3464;42.728;23.296;2022-07-04T00:20:22;11.87;;;4.93;;
6850;SDS011;3464;42.728;23.296;2022-07-04T00:22:49;15.87;;;4.90;;
6850;SDS011;3464;42.728;23.296;2022-07-04T00:25:15;11.43;;;5.00;;
6850;SDS011;3464;42.728;23.296;2022-07-04T00:27:42;12.47;;;5.57;;
6850;SDS011;3464;42.728;23.296;2022-07-04T00:30:08;13.10;;;5.10;;
6850;SDS011;3464;42.728;23.296;2022-07-04T00:32:35;14.23;;;5.20;;
6850;SDS011;3464;42.728;23.296;2022-07-04T00:35:02;14.63;;;5.03;;
6850;SDS011;3464;42.728;23.296;2022-07-04T00:37:29;11.73;;;5.33;;
6850;SDS011;3464;42.728;23.296;2022-07-04T00:39:55;11.77;;;4.93;;
6850;SDS011;3464;42.728;23.296;2022-07-04T00:42:22;17.23;;;5.53;;
6850;SDS011;3464;42.728;23.296;2022-07-04T00:44:48;12.83;;;5.27;;
6850;SDS011;3464;42.728;23.296;2022-07-04T00:47:15;13.23;;;4.80;;
6850;SDS011;3464;42.728;23.296;2022-07-04T00:49:41;13.83;;;5.00;;
6850;SDS011;3464;42.728;23.296;2022-07-04T00:52:08;19.87;;;5.10;;
6850;SDS011;3464;42.728;23.296;2022-07-04T00:54:34;13.70;;;4.93;;
6850;SDS011;3464;42.728;23.296;2022-07-04T00:57:01;12.33;;;5.20;;
6850;SDS011;3464;42.728;23.296;2022-07-04T00:59:28;12.97;;;4.53;;
6850;SDS011;3464;42.728;23.296;2022-07-04T01:01:54;12.67;;;4.30;;
6850;SDS011;3464;42.728;23.296;2022-07-04T01:04:21;10.47;;;3.97;;
6850;SDS011;3464;42.728;23.296;2022-07-04T01:06:48;12.63;;;4.30;;
6850;SDS011;3464;42.728;23.296;2022-07-04T01:09:15;14.20;;;4.50;;
6850;SDS011;3464;42.728;23.296;2022-07-04T01:11:41;11.80;;;4.20;;
6850;SDS011;3464;42.728;23.296;2022-07-04T01:14:08;13.40;;;4.47;;
6850;SDS011;3464;42.728;23.296;2022-07-04T01:16:34;16.37;;;4.77;;
6850;SDS011;3464;42.728;23.296;2022-07-04T01:19:01;14.60;;;4.10;;
6850;SDS011;3464;42.728;23.296;2022-07-04T01:21:27;13.23;;;4.50;;
6850;SDS011;3464;42.728;23.296;2022-07-04T01:23:54;16.33;;;4.60;;
6850;SDS011;3464;42.728;23.296;2022-07-04T01:26:20;19.10;;;4.40;;
6850;SDS011;3464;42.728;23.296;2022-07-04T01:28:48;12.13;;;4.47;;
6850;SDS011;3464;42.728;23.296;2022-07-04T01:31:14;14.03;;;4.40;;
6850;SDS011;3464;42.728;23.296;2022-07-04T01:33:41;12.53;;;4.33;;
6850;SDS011;3464;42.728;23.296;2022-07-04T01:36:08;15.40;;;4.13;;
6850;SDS011;3464;42.728;23.296;2022-07-04T01:38:34;13.60;;;4.60;;
6850;SDS011;3464;42.728;23.296;2022-07-04T01:41:01;20.23;;;4.70;;
6850;SDS011;3464;42.728;23.296;2022-07-04T01:43:27;12.20;;;4.37;;
6850;SDS011;3464;42.728;23.296;2022-07-04T01:45:54;12.67;;;4.70;;
6850;SDS011;3464;42.728;23.296;2022-07-04T01:48:20;13.93;;;4.87;;
6850;SDS011;3464;42.728;23.296;2022-07-04T01:50:47;13.30;;;4.40;;
6850;SDS011;3464;42.728;23.296;2022-07-04T01:53:14;12.97;;;4.70;;
6850;SDS011;3464;42.728;23.296;2022-07-04T01:55:41;14.57;;;4.43;;
6850;SDS011;3464;42.728;23.296;2022-07-04T01:58:07;22.87;;;5.10;;
6850;SDS011;3464;42.728;23.296;2022-07-04T02:00:34;18.80;;;4.73;;
6850;SDS011;3464;42.728;23.296;2022-07-04T02:03:06;12.57;;;4.70;;
6850;SDS011;3464;42.728;23.296;2022-07-04T02:05:32;13.70;;;4.57;;
6850;SDS011;3464;42.728;23.296;2022-07-04T02:07:59;12.20;;;4.30;;
6850;SDS011;3464;42.728;23.296;2022-07-04T02:10:25;18.00;;;5.33;;
6850;SDS011;3464;42.728;23.296;2022-07-04T02:12:52;17.23;;;4.67;;
6850;SDS011;3464;42.728;23.296;2022-07-04T02:15:24;18.73;;;4.30;;
6850;SDS011;3464;42.728;23.296;2022-07-04T02:17:51;13.27;;;4.60;;
6850;SDS011;3464;42.728;23.296;2022-07-04T02:22:49;14.90;;;4.43;;
6850;SDS011;3464;42.728;23.296;2022-07-04T02:25:16;11.83;;;4.20;;
6850;SDS011;3464;42.728;23.296;2022-07-04T02:27:45;15.33;;;4.10;;
6850;SDS011;3464;42.728;23.296;2022-07-04T02:30:13;14.23;;;4.53;;
6850;SDS011;3464;42.728;23.296;2022-07-04T02:32:41;14.53;;;4.10;;
6850;SDS011;3464;42.728;23.296;2022-07-04T02:35:11;15.43;;;4.73;;
6850;SDS011;3464;42.728;23.296;2022-07-04T02:37:37;13.90;;;5.10;;
6850;SDS011;3464;42.728;23.296;2022-07-04T02:40:04;16.10;;;4.40;;
6850;SDS011;3464;42.728;23.296;2022-07-04T02:42:32;13.77;;;5.00;;
6850;SDS011;3464;42.728;23.296;2022-07-04T02:44:57;14.57;;;4.00;;
6850;SDS011;3464;42.728;23.296;2022-07-04T02:47:24;13.67;;;4.50;;
6850;SDS011;3464;42.728;23.296;2022-07-04T02:49:51;14.07;;;4.70;;
6850;SDS011;3464;42.728;23.296;2022-07-04T02:52:18;12.10;;;4.63;;
6850;SDS011;3464;42.728;23.296;2022-07-04T02:54:44;19.67;;;4.70;;
6850;SDS011;3464;42.728;23.296;2022-07-04T02:57:11;14.83;;;4.60;;
6850;SDS011;3464;42.728;23.296;2022-07-04T02:59:39;14.23;;;4.20;;
6850;SDS011;3464;42.728;23.296;2022-07-04T03:02:06;15.47;;;5.13;;
6850;SDS011;3464;42.728;23.296;2022-07-04T03:04:32;17.53;;;4.83;;
6850;SDS011;3464;42.728;23.296;2022-07-04T03:07:00;14.50;;;4.10;;
6850;SDS011;3464;42.728;23.296;2022-07-04T03:09:26;18.00;;;4.57;;
6850;SDS011;3464;42.728;23.296;2022-07-04T03:11:53;12.10;;;4.20;;
6850;SDS011;3464;42.728;23.296;2022-07-04T03:14:20;16.90;;;4.60;;
6850;SDS011;3464;42.728;23.296;2022-07-04T03:16:46;20.10;;;4.60;;
6850;SDS011;3464;42.728;23.296;2022-07-04T03:19:13;10.50;;;4.27;;
6850;SDS011;3464;42.728;23.296;2022-07-04T03:21:39;14.20;;;4.60;;
6850;SDS011;3464;42.728;23.296;2022-07-04T03:24:06;14.00;;;4.70;;
6850;SDS011;3464;42.728;23.296;2022-07-04T03:26:32;11.43;;;4.77;;
6850;SDS011;3464;42.728;23.296;2022-07-04T03:28:59;14.00;;;4.87;;
6850;SDS011;3464;42.728;23.296;2022-07-04T03:31:25;12.10;;;4.77;;
6850;SDS011;3464;42.728;23.296;2022-07-04T03:33:53;16.20;;;4.83;;
6850;SDS011;3464;42.728;23.296;2022-07-04T03:36:23;11.90;;;4.63;;
6850;SDS011;3464;42.728;23.296;2022-07-04T03:38:49;16.03;;;5.27;;
6850;SDS011;3464;42.728;23.296;2022-07-04T03:41:16;12.40;;;4.40;;
6850;SDS011;3464;42.728;23.296;2022-07-04T03:43:43;13.60;;;5.10;;
6850;SDS011;3464;42.728;23.296;2022-07-04T03:46:10;14.20;;;4.50;;
6850;SDS011;3464;42.728;23.296;2022-07-04T03:48:37;20.53;;;5.43;;
6850;SDS011;3464;42.728;23.296;2022-07-04T03:51:06;16.90;;;5.50;;
6850;SDS011;3464;42.728;23.296;2022-07-04T03:53:33;19.70;;;6.70;;
6850;SDS011;3464;42.728;23.296;2022-07-04T03:56:00;22.00;;;6.67;;
6850;SDS011;3464;42.728;23.296;2022-07-04T03:58:27;21.27;;;6.70;;
6850;SDS011;3464;42.728;23.296;2022-07-04T04:00:54;21.53;;;8.50;;
6850;SDS011;3464;42.728;23.296;2022-07-04T04:03:20;19.93;;;7.57;;
6850;SDS011;3464;42.728;23.296;2022-07-04T04:05:53;17.73;;;7.50;;
6850;SDS011;3464;42.728;23.296;2022-07-04T04:08:19;20.93;;;7.30;;
6850;SDS011;3464;42.728;23.296;2022-07-04T04:10:46;17.77;;;7.00;;
6850;SDS011;3464;42.728;23.296;2022-07-04T04:13:12;19.63;;;6.60;;
6850;SDS011;3464;42.728;23.296;2022-07-04T04:15:39;17.90;;;6.30;;
6850;SDS011;3464;42.728;23.296;2022-07-04T04:18:05;18.93;;;6.73;;
6850;SDS011;3464;42.728;23.296;2022-07-04T04:20:32;18.53;;;6.90;;
6850;SDS011;3464;42.728;23.296;2022-07-04T04:22:58;14.63;;;5.87;;
6850;SDS011;3464;42.728;23.296;2022-07-04T04:25:25;22.13;;;6.40;;
6850;SDS011;3464;42.728;23.296;2022-07-04T04:27:51;13.57;;;4.40;;
6850;SDS011;3464;42.728;23.296;2022-07-04T04:30:18;18.07;;;4.27;;
6850;SDS011;3464;42.728;23.296;2022-07-04T04:32:45;11.90;;;4.53;;
6850;SDS011;3464;42.728;23.296;2022-07-04T04:35:11;17.93;;;5.90;;
6850;SDS011;3464;42.728;23.296;2022-07-04T04:37:39;14.97;;;4.83;;
6850;SDS011;3464;42.728;23.296;2022-07-04T04:40:06;12.00;;;5.40;;
6850;SDS011;3464;42.728;23.296;2022-07-04T04:42:33;11.90;;;4.67;;
6850;SDS011;3464;42.728;23.296;2022-07-04T04:44:59;15.10;;;5.20;;
6850;SDS011;3464;42.728;23.296;2022-07-04T04:47:26;17.23;;;5.30;;
6850;SDS011;3464;42.728;23.296;2022-07-04T04:49:52;17.47;;;4.73;;
6850;SDS011;3464;42.728;23.296;2022-07-04T04:52:19;20.40;;;4.67;;
6850;SDS011;3464;42.728;23.296;2022-07-04T04:54:45;15.77;;;4.63;;
6850;SDS011;3464;42.728;23.296;2022-07-04T04:57:12;19.90;;;5.00;;
6850;SDS011;3464;42.728;23.296;2022-07-04T04:59:39;18.00;;;4.40;;
6850;SDS011;3464;42.728;23.296;2022-07-04T05:02:05;14.37;;;4.33;;
6850;SDS011;3464;42.728;23.296;2022-07-04T05:04:32;12.43;;;4.13;;
6850;SDS011;3464;42.728;23.296;2022-07-04T05:06:58;16.83;;;4.43;;
6850;SDS011;3464;42.728;23.296;2022-07-04T05:09:25;15.23;;;4.10;;
6850;SDS011;3464;42.728;23.296;2022-07-04T05:11:51;29.57;;;4.17;;
6850;SDS011;3464;42.728;23.296;2022-07-04T05:14:18;15.50;;;4.20;;
6850;SDS011;3464;42.728;23.296;2022-07-04T05:16:44;15.37;;;4.53;;
6850;SDS011;3464;42.728;23.296;2022-07-04T05:19:11;16.50;;;4.20;;
6850;SDS011;3464;42.728;23.296;2022-07-04T05:21:37;15.90;;;4.67;;
6850;SDS011;3464;42.728;23.296;2022-07-04T05:24:04;16.90;;;4.57;;
6850;SDS011;3464;42.728;23.296;2022-07-04T05:26:31;14.13;;;4.37;;
6850;SDS011;3464;42.728;23.296;2022-07-04T05:28:59;14.73;;;4.60;;
6850;SDS011;3464;42.728;23.296;2022-07-04T05:31:26;16.30;;;4.47;;
6850;SDS011;3464;42.728;23.296;2022-07-04T05:33:54;12.77;;;4.30;;
6850;SDS011;3464;42.728;23.296;2022-07-04T05:36:22;15.00;;;4.87;;
6850;SDS011;3464;42.728;23.296;2022-07-04T05:38:50;14.90;;;4.63;;
6850;SDS011;3464;42.728;23.296;2022-07-04T05:41:17;18.13;;;5.13;;
6850;SDS011;3464;42.728;23.296;2022-07-04T05:43:44;13.80;;;4.90;;
6850;SDS011;3464;42.728;23.296;2022-07-04T05:46:11;19.07;;;5.00;;
6850;SDS011;3464;42.728;23.296;2022-07-04T05:48:38;20.20;;;4.40;;
6850;SDS011;3464;42.728;23.296;2022-07-04T05:51:05;16.27;;;4.17;;
6850;SDS011;3464;42.728;23.296;2022-07-04T05:53:32;18.70;;;4.13;;
6850;SDS011;3464;42.728;23.296;2022-07-04T05:55:58;16.43;;;4.67;;
6850;SDS011;3464;42.728;23.296;2022-07-04T05:58:24;15.50;;;4.50;;
6850;SDS011;3464;42.728;23.296;2022-07-04T06:00:59;14.23;;;4.23;;
6850;SDS011;3464;42.728;23.296;2022-07-04T06:03:26;15.50;;;4.00;;
6850;SDS011;3464;42.728;23.296;2022-07-04T06:05:53;12.77;;;3.87;;
6850;SDS011;3464;42.728;23.296;2022-07-04T06:08:20;12.15;;;3.37;;
6850;SDS011;3464;42.728;23.296;2022-07-04T06:10:47;13.43;;;3.60;;
6850;SDS011;3464;42.728;23.296;2022-07-04T06:13:13;12.93;;;3.87;;
6850;SDS011;3464;42.728;23.296;2022-07-04T06:15:40;13.62;;;3.78;;
6850;SDS011;3464;42.728;23.296;2022-07-04T06:18:07;16.70;;;3.75;;
6850;SDS011;3464;42.728;23.296;2022-07-04T06:20:34;14.85;;;3.75;;
6850;SDS011;3464;42.728;23.296;2022-07-04T06:23:01;17.15;;;4.50;;
6850;SDS011;3464;42.728;23.296;2022-07-04T06:25:27;11.27;;;3.92;;
6850;SDS011;3464;42.728;23.296;2022-07-04T06:27:54;14.52;;;3.45;;
6850;SDS011;3464;42.728;23.296;2022-07-04T06:30:20;13.02;;;3.60;;
6850;SDS011;3464;42.728;23.296;2022-07-04T06:32:49;14.52;;;3.45;;
6850;SDS011;3464;42.728;23.296;2022-07-04T06:35:18;16.67;;;3.30;;
6850;SDS011;3464;42.728;23.296;2022-07-04T06:37:49;13.10;;;2.97;;
6850;SDS011;3464;42.728;23.296;2022-07-04T06:40:17;11.98;;;3.67;;
6850;SDS011;3464;42.728;23.296;2022-07-04T06:42:44;16.37;;;3.55;;
6850;SDS011;3464;42.728;23.296;2022-07-04T06:45:11;11.25;;;3.10;;
6850;SDS011;3464;42.728;23.296;2022-07-04T06:47:37;15.77;;;3.40;;
6850;SDS011;3464;42.728;23.296;2022-07-04T06:50:04;19.15;;;3.58;;
6850;SDS011;3464;42.728;23.296;2022-07-04T06:52:33;13.50;;;3.33;;
6850;SDS011;3464;42.728;23.296;2022-07-04T06:55:04;15.32;;;3.97;;
6850;SDS011;3464;42.728;23.296;2022-07-04T06:57:30;13.95;;;3.55;;
6850;SDS011;3464;42.728;23.296;2022-07-04T06:59:57;13.57;;;3.80;;
6850;SDS011;3464;42.728;23.296;2022-07-04T07:02:24;14.00;;;3.33;;
6850;SDS011;3464;42.728;23.296;2022-07-04T07:04:50;16.17;;;3.55;;
6850;SDS011;3464;42.728;23.296;2022-07-04T07:07:18;18.27;;;3.70;;
6850;SDS011;3464;42.728;23.296;2022-07-04T07:09:44;12.27;;;3.47;;
6850;SDS011;3464;42.728;23.296;2022-07-04T07:12:11;21.85;;;3.70;;
6850;SDS011;3464;42.728;23.296;2022-07-04T07:14:37;13.48;;;3.42;;
6850;SDS011;3464;42.728;23.296;2022-07-04T07:17:05;15.90;;;3.55;;
6850;SDS011;3464;42.728;23.296;2022-07-04T07:19:32;18.55;;;3.80;;
6850;SDS011;3464;42.728;23.296;2022-07-04T07:21:59;16.62;;;4.12;;
6850;SDS011;3464;42.728;23.296;2022-07-04T07:24:25;19.58;;;4.28;;
6850;SDS011;3464;42.728;23.296;2022-07-04T07:26:52;16.58;;;4.20;;
6850;SDS011;3464;42.728;23.296;2022-07-04T07:29:20;22.42;;;3.75;;
6850;SDS011;3464;42.728;23.296;2022-07-04T07:31:46;14.80;;;4.82;;
6850;SDS011;3464;42.728;23.296;2022-07-04T07:34:14;15.82;;;4.95;;
6850;SDS011;3464;42.728;23.296;2022-07-04T07:36:41;14.52;;;5.55;;
6850;SDS011;3464;42.728;23.296;2022-07-04T07:39:08;12.68;;;5.05;;
6850;SDS011;3464;42.728;23.296;2022-07-04T07:41:34;18.55;;;5.20;;
6850;SDS011;3464;42.728;23.296;2022-07-04T07:44:01;18.73;;;4.25;;
6850;SDS011;3464;42.728;23.296;2022-07-04T07:46:27;15.32;;;5.37;;
6850;SDS011;3464;42.728;23.296;2022-07-04T07:48:54;13.73;;;4.85;;
6850;SDS011;3464;42.728;23.296;2022-07-04T07:51:20;17.85;;;4.68;;
6850;SDS011;3464;42.728;23.296;2022-07-04T07:53:47;17.50;;;5.28;;
6850;SDS011;3464;42.728;23.296;2022-07-04T07:56:13;16.00;;;4.47;;
6850;SDS011;3464;42.728;23.296;2022-07-04T07:58:40;22.67;;;5.22;;
6850;SDS011;3464;42.728;23.296;2022-07-04T08:01:07;16.95;;;5.12;;
6850;SDS011;3464;42.728;23.296;2022-07-04T08:03:33;15.95;;;5.32;;
6850;SDS011;3464;42.728;23.296;2022-07-04T08:06:05;16.75;;;5.30;;
6850;SDS011;3464;42.728;23.296;2022-07-04T08:08:32;15.80;;;5.57;;
6850;SDS011;3464;42.728;23.296;2022-07-04T08:10:58;18.67;;;4.85;;
6850;SDS011;3464;42.728;23.296;2022-07-04T08:13:25;15.95;;;5.12;;
6850;SDS011;3464;42.728;23.296;2022-07-04T08:15:51;14.85;;;4.93;;
6850;SDS011;3464;42.728;23.296;2022-07-04T08:18:18;15.00;;;4.70;;
6850;SDS011;3464;42.728;23.296;2022-07-04T08:20:45;14.80;;;3.90;;
6850;SDS011;3464;42.728;23.296;2022-07-04T08:23:11;18.15;;;4.53;;
6850;SDS011;3464;42.728;23.296;2022-07-04T08:25:38;20.50;;;5.00;;
6850;SDS011;3464;42.728;23.296;2022-07-04T08:28:04;18.02;;;4.50;;
6850;SDS011;3464;42.728;23.296;2022-07-04T08:30:31;14.07;;;5.00;;
6850;SDS011;3464;42.728;23.296;2022-07-04T08:32:57;12.63;;;3.78;;
6850;SDS011;3464;42.728;23.296;2022-07-04T08:35:24;15.10;;;4.53;;
6850;SDS011;3464;42.728;23.296;2022-07-04T08:37:51;14.90;;;4.60;;
6850;SDS011;3464;42.728;23.296;2022-07-04T08:40:17;16.80;;;4.90;;
6850;SDS011;3464;42.728;23.296;2022-07-04T08:42:45;24.97;;;5.03;;
6850;SDS011;3464;42.728;23.296;2022-07-04T08:45:11;22.20;;;5.17;;
6850;SDS011;3464;42.728;23.296;2022-07-04T08:47:38;17.50;;;4.30;;
6850;SDS011;3464;42.728;23.296;2022-07-04T08:50:08;17.13;;;4.40;;
6850;SDS011;3464;42.728;23.296;2022-07-04T08:52:38;20.20;;;5.40;;
6850;SDS011;3464;42.728;23.296;2022-07-04T08:55:05;13.47;;;5.07;;
6850;SDS011;3464;42.728;23.296;2022-07-04T08:57:37;13.53;;;4.43;;
6850;SDS011;3464;42.728;23.296;2022-07-04T09:00:09;13.87;;;4.93;;
6850;SDS011;3464;42.728;23.296;2022-07-04T09:02:36;14.67;;;4.47;;
6850;SDS011;3464;42.728;23.296;2022-07-04T09:05:02;16.80;;;4.70;;
6850;SDS011;3464;42.728;23.296;2022-07-04T09:07:29;20.10;;;5.27;;
6850;SDS011;3464;42.728;23.296;2022-07-04T09:09:56;21.77;;;5.20;;
6850;SDS011;3464;42.728;23.296;2022-07-04T09:12:22;16.80;;;5.30;;
6850;SDS011;3464;42.728;23.296;2022-07-04T09:14:49;17.03;;;5.10;;
6850;SDS011;3464;42.728;23.296;2022-07-04T09:17:15;22.90;;;5.70;;
6850;SDS011;3464;42.728;23.296;2022-07-04T09:19:42;16.30;;;5.50;;
6850;SDS011;3464;42.728;23.296;2022-07-04T09:22:09;11.43;;;4.90;;
6850;SDS011;3464;42.728;23.296;2022-07-04T09:24:43;21.10;;;5.70;;
6850;SDS011;3464;42.728;23.296;2022-07-04T09:27:28;14.17;;;5.33;;
6850;SDS011;3464;42.728;23.296;2022-07-04T09:29:51;20.10;;;5.33;;
6850;SDS011;3464;42.728;23.296;2022-07-04T09:32:23;16.23;;;5.00;;
6850;SDS011;3464;42.728;23.296;2022-07-04T09:34:54;13.90;;;5.50;;
6850;SDS011;3464;42.728;23.296;2022-07-04T09:37:21;13.23;;;5.30;;
6850;SDS011;3464;42.728;23.296;2022-07-04T09:39:48;14.10;;;5.20;;
6850;SDS011;3464;42.728;23.296;2022-07-04T09:42:15;15.33;;;5.17;;
6850;SDS011;3464;42.728;23.296;2022-07-04T09:44:43;16.03;;;4.83;;
6850;SDS011;3464;42.728;23.296;2022-07-04T09:52:25;11.90;;;5.00;;
6850;SDS011;3464;42.728;23.296;2022-07-04T09:54:56;14.50;;;5.87;;
6850;SDS011;3464;42.728;23.296;2022-07-04T09:57:21;13.80;;;5.10;;
6850;SDS011;3464;42.728;23.296;2022-07-04T09:59:46;15.03;;;5.27;;
6850;SDS011;3464;42.728;23.296;2022-07-04T10:02:12;14.83;;;5.40;;
6850;SDS011;3464;42.728;23.296;2022-07-04T10:04:43;13.10;;;4.80;;
6850;SDS011;3464;42.728;23.296;2022-07-04T10:07:11;12.20;;;5.70;;
6850;SDS011;3464;42.728;23.296;2022-07-04T10:09:38;14.23;;;6.00;;
6850;SDS011;3464;42.728;23.296;2022-07-04T10:12:05;16.00;;;5.57;;
6850;SDS011;3464;42.728;23.296;2022-07-04T10:14:31;15.67;;;5.67;;
6850;SDS011;3464;42.728;23.296;2022-07-04T10:16:59;14.13;;;5.60;;
6850;SDS011;3464;42.728;23.296;2022-07-04T10:19:25;13.27;;;5.50;;
6850;SDS011;3464;42.728;23.296;2022-07-04T10:21:52;14.63;;;5.73;;
6850;SDS011;3464;42.728;23.296;2022-07-04T10:24:18;14.37;;;5.73;;
6850;SDS011;3464;42.728;23.296;2022-07-04T10:26:45;16.60;;;6.23;;
6850;SDS011;3464;42.728;23.296;2022-07-04T10:29:11;13.30;;;5.57;;
6850;SDS011;3464;42.728;23.296;2022-07-04T10:31:38;13.77;;;5.60;;
6850;SDS011;3464;42.728;23.296;2022-07-04T10:34:04;14.60;;;5.77;;
6850;SDS011;3464;42.728;23.296;2022-07-04T10:36:31;22.40;;;6.20;;
6850;SDS011;3464;42.728;23.296;2022-07-04T10:38:58;16.00;;;6.00;;
6850;SDS011;3464;42.728;23.296;2022-07-04T10:41:27;16.43;;;6.60;;
6850;SDS011;3464;42.728;23.296;2022-07-04T10:43:55;16.80;;;6.17;;
6850;SDS011;3464;42.728;23.296;2022-07-04T10:46:25;19.50;;;6.57;;
6850;SDS011;3464;42.728;23.296;2022-07-04T10:48:52;18.17;;;6.37;;
6850;SDS011;3464;42.728;23.296;2022-07-04T10:53:57;15.50;;;6.50;;
6850;SDS011;3464;42.728;23.296;2022-07-04T10:59:07;14.73;;;6.57;;
6850;SDS011;3464;42.728;23.296;2022-07-04T11:01:34;14.90;;;6.30;;
6850;SDS011;3464;42.728;23.296;2022-07-04T11:04:00;16.93;;;5.87;;
6850;SDS011;3464;42.728;23.296;2022-07-04T11:09:15;14.33;;;6.20;;
6850;SDS011;3464;42.728;23.296;2022-07-04T11:12:02;15.13;;;6.53;;
6850;SDS011;3464;42.728;23.296;2022-07-04T11:17:02;15.67;;;5.87;;
6850;SDS011;3464;42.728;23.296;2022-07-04T11:19:29;14.37;;;6.23;;
6850;SDS011;3464;42.728;23.296;2022-07-04T11:21:55;15.53;;;6.37;;
6850;SDS011;3464;42.728;23.296;2022-07-04T11:24:23;13.43;;;6.40;;
6850;SDS011;3464;42.728;23.296;2022-07-04T11:26:49;14.77;;;6.23;;
6850;SDS011;3464;42.728;23.296;2022-07-04T11:29:16;13.90;;;6.27;;
6850;SDS011;3464;42.728;23.296;2022-07-04T11:31:43;16.47;;;6.40;;
6850;SDS011;3464;42.728;23.296;2022-07-04T11:34:09;13.40;;;5.83;;
6850;SDS011;3464;42.728;23.296;2022-07-04T11:36:36;15.07;;;6.30;;
6850;SDS011;3464;42.728;23.296;2022-07-04T11:39:03;23.73;;;6.50;;
6850;SDS011;3464;42.728;23.296;2022-07-04T11:41:30;17.07;;;6.90;;
6850;SDS011;3464;42.728;23.296;2022-07-04T11:44:03;15.60;;;6.67;;
6850;SDS011;3464;42.728;23.296;2022-07-04T11:46:36;13.27;;;6.00;;
6850;SDS011;3464;42.728;23.296;2022-07-04T11:49:09;13.97;;;5.80;;
6850;SDS011;3464;42.728;23.296;2022-07-04T11:51:35;17.93;;;6.20;;
6850;SDS011;3464;42.728;23.296;2022-07-04T11:54:03;19.03;;;6.63;;
6850;SDS011;3464;42.728;23.296;2022-07-04T11:56:29;14.30;;;6.30;;
6850;SDS011;3464;42.728;23.296;2022-07-04T11:58:56;17.50;;;6.50;;
6850;SDS011;3464;42.728;23.296;2022-07-04T12:01:27;16.70;;;6.93;;
6850;SDS011;3464;42.728;23.296;2022-07-04T12:03:53;14.90;;;6.60;;
6850;SDS011;3464;42.728;23.296;2022-07-04T12:06:20;13.97;;;6.13;;
6850;SDS011;3464;42.728;23.296;2022-07-04T12:08:47;14.50;;;6.20;;
6850;SDS011;3464;42.728;23.296;2022-07-04T12:11:15;13.70;;;6.50;;
6850;SDS011;3464;42.728;23.296;2022-07-04T12:13:41;15.10;;;6.40;;
6850;SDS011;3464;42.728;23.296;2022-07-04T12:16:11;14.73;;;6.40;;
6850;SDS011;3464;42.728;23.296;2022-07-04T12:18:37;15.77;;;6.83;;
6850;SDS011;3464;42.728;23.296;2022-07-04T12:23:35;15.80;;;6.50;;
6850;SDS011;3464;42.728;23.296;2022-07-04T12:26:02;17.37;;;6.70;;
6850;SDS011;3464;42.728;23.296;2022-07-04T12:28:34;14.00;;;6.43;;
6850;SDS011;3464;42.728;23.296;2022-07-04T12:30:55;14.50;;;6.53;;
6850;SDS011;3464;42.728;23.296;2022-07-04T12:33:22;18.57;;;6.97;;
6850;SDS011;3464;42.728;23.296;2022-07-04T12:35:49;16.10;;;7.00;;
6850;SDS011;3464;42.728;23.296;2022-07-04T12:38:18;18.50;;;6.80;;
6850;SDS011;3464;42.728;23.296;2022-07-04T12:40:57;18.47;;;6.67;;
6850;SDS011;3464;42.728;23.296;2022-07-04T12:46:28;15.50;;;6.50;;
6850;SDS011;3464;42.728;23.296;2022-07-04T12:48:55;14.70;;;6.40;;
6850;SDS011;3464;42.728;23.296;2022-07-04T12:51:22;18.20;;;6.00;;
6850;SDS011;3464;42.728;23.296;2022-07-04T12:53:49;15.40;;;6.53;;
6850;SDS011;3464;42.728;23.296;2022-07-04T12:58:53;14.93;;;6.60;;
6850;SDS011;3464;42.728;23.296;2022-07-04T13:01:19;18.43;;;7.30;;
6850;SDS011;3464;42.728;23.296;2022-07-04T13:03:46;14.07;;;6.10;;
6850;SDS011;3464;42.728;23.296;2022-07-04T13:06:14;20.17;;;7.33;;
6850;SDS011;3464;42.728;23.296;2022-07-04T13:08:40;17.53;;;7.83;;
6850;SDS011;3464;42.728;23.296;2022-07-04T13:11:08;16.00;;;7.13;;
6850;SDS011;3464;42.728;23.296;2022-07-04T13:13:41;14.43;;;6.33;;
6850;SDS011;3464;42.728;23.296;2022-07-04T13:16:08;14.23;;;6.87;;
6850;SDS011;3464;42.728;23.296;2022-07-04T13:18:34;13.03;;;6.07;;
6850;SDS011;3464;42.728;23.296;2022-07-04T13:21:01;17.90;;;6.80;;
6850;SDS011;3464;42.728;23.296;2022-07-04T13:23:27;16.20;;;7.10;;
6850;SDS011;3464;42.728;23.296;2022-07-04T13:25:54;14.67;;;7.43;;
6850;SDS011;3464;42.728;23.296;2022-07-04T13:28:20;18.33;;;7.53;;
6850;SDS011;3464;42.728;23.296;2022-07-04T13:30:47;14.77;;;6.80;;
6850;SDS011;3464;42.728;23.296;2022-07-04T13:33:13;16.60;;;7.90;;
6850;SDS011;3464;42.728;23.296;2022-07-04T13:35:40;30.93;;;17.80;;
6850;SDS011;3464;42.728;23.296;2022-07-04T13:38:06;22.87;;;10.73;;
6850;SDS011;3464;42.728;23.296;2022-07-04T13:40:33;31.23;;;8.93;;
6850;SDS011;3464;42.728;23.296;2022-07-04T13:42:59;24.10;;;8.40;;
6850;SDS011;3464;42.728;23.296;2022-07-04T13:45:26;13.60;;;6.70;;
6850;SDS011;3464;42.728;23.296;2022-07-04T13:47:53;17.10;;;7.30;;
6850;SDS011;3464;42.728;23.296;2022-07-04T13:50:20;16.00;;;7.07;;
6850;SDS011;3464;42.728;23.296;2022-07-04T13:52:46;14.20;;;7.03;;
6850;SDS011;3464;42.728;23.296;2022-07-04T13:55:13;15.97;;;6.43;;
6850;SDS011;3464;42.728;23.296;2022-07-04T13:57:39;22.63;;;7.20;;
6850;SDS011;3464;42.728;23.296;2022-07-04T14:00:06;14.80;;;7.00;;
6850;SDS011;3464;42.728;23.296;2022-07-04T14:02:33;13.97;;;7.10;;
6850;SDS011;3464;42.728;23.296;2022-07-04T14:04:59;18.57;;;7.00;;
6850;SDS011;3464;42.728;23.296;2022-07-04T14:07:26;16.20;;;7.40;;
6850;SDS011;3464;42.728;23.296;2022-07-04T14:09:52;16.23;;;7.27;;
6850;SDS011;3464;42.728;23.296;2022-07-04T14:12:20;13.33;;;7.03;;
6850;SDS011;3464;42.728;23.296;2022-07-04T14:14:46;14.50;;;6.97;;
6850;SDS011;3464;42.728;23.296;2022-07-04T14:17:13;15.93;;;7.63;;
6850;SDS011;3464;42.728;23.296;2022-07-04T14:19:39;16.80;;;7.00;;
6850;SDS011;3464;42.728;23.296;2022-07-04T14:22:06;13.40;;;7.00;;
6850;SDS011;3464;42.728;23.296;2022-07-04T14:24:32;16.97;;;7.90;;
6850;SDS011;3464;42.728;23.296;2022-07-04T14:27:00;18.43;;;7.50;;
6850;SDS011;3464;42.728;23.296;2022-07-04T14:29:26;20.07;;;7.20;;
6850;SDS011;3464;42.728;23.296;2022-07-04T14:31:53;18.17;;;7.50;;
6850;SDS011;3464;42.728;23.296;2022-07-04T14:34:20;14.70;;;7.10;;
6850;SDS011;3464;42.728;23.296;2022-07-04T14:36:46;14.23;;;7.30;;
6850;SDS011;3464;42.728;23.296;2022-07-04T14:39:13;16.43;;;6.93;;
6850;SDS011;3464;42.728;23.296;2022-07-04T14:41:40;16.80;;;7.03;;
6850;SDS011;3464;42.728;23.296;2022-07-04T14:44:06;14.90;;;7.67;;
6850;SDS011;3464;42.728;23.296;2022-07-04T14:46:33;14.70;;;7.60;;
6850;SDS011;3464;42.728;23.296;2022-07-04T14:48:59;18.60;;;7.10;;
6850;SDS011;3464;42.728;23.296;2022-07-04T14:51:27;16.07;;;7.13;;
6850;SDS011;3464;42.728;23.296;2022-07-04T14:53:54;17.80;;;8.00;;
6850;SDS011;3464;42.728;23.296;2022-07-04T14:56:21;16.33;;;7.63;;
6850;SDS011;3464;42.728;23.296;2022-07-04T14:58:48;19.03;;;7.83;;
6850;SDS011;3464;42.728;23.296;2022-07-04T15:01:14;19.93;;;7.70;;
6850;SDS011;3464;42.728;23.296;2022-07-04T15:03:41;15.20;;;6.90;;
6850;SDS011;3464;42.728;23.296;2022-07-04T15:06:07;14.80;;;7.57;;
6850;SDS011;3464;42.728;23.296;2022-07-04T15:08:34;15.67;;;7.50;;
6850;SDS011;3464;42.728;23.296;2022-07-04T15:11:01;17.73;;;7.80;;
6850;SDS011;3464;42.728;23.296;2022-07-04T15:13:28;14.50;;;7.40;;